< < Back
Terminal Aerodrome Forecast


Current Version              Previous Versions:   1  2  3  4  5  6  7  8  9  

Terminal Aerodrome Forecast

735
FTUS44 KBMX 090523
TAFMGM
TAF
KMGM 090523Z 0906/1006 28008G14KT P6SM BKN050
     FM091500 29014G24KT P6SM BKN050
     FM100100 28009KT P6SM SKC=

Latest METAR

313
SAUS80 KWBC 100400 RRA
MTRMGM
METAR KMGM 100353Z 27007KT 10SM CLR 02/M09 A3010 RMK AO2 SLP195
T00171089


USA.gov is the U.S. government's official web portal to all federal, state and local government web resources and services.